createdAt,value
2022-09-20T00:01:42.400Z,9.95
2022-09-20T00:04:11.326Z,9.90
2022-09-20T00:06:39.644Z,9.90
2022-09-20T00:09:07.894Z,9.86
2022-09-20T00:11:38.329Z,9.95
2022-09-20T00:14:09.514Z,9.93
2022-09-20T00:16:41.424Z,9.90
2022-09-20T00:19:16.227Z,9.86
2022-09-20T00:21:44.784Z,9.79
2022-09-20T00:24:13.745Z,9.84
2022-09-20T00:26:43.605Z,9.81
2022-09-20T00:29:13.287Z,9.78
2022-09-20T00:31:43.020Z,9.78
2022-09-20T00:34:29.938Z,9.79
2022-09-20T00:36:58.256Z,9.78
2022-09-20T00:39:27.108Z,9.79
2022-09-20T00:41:56.734Z,9.72
2022-09-20T00:44:45.483Z,9.78
2022-09-20T00:47:20.597Z,9.83
2022-09-20T00:49:49.729Z,9.77
2022-09-20T00:52:19.364Z,9.85
2022-09-20T00:54:48.141Z,9.86
2022-09-20T00:57:18.452Z,9.82
2022-09-20T00:59:50.121Z,9.82
2022-09-20T01:02:21.445Z,9.85
2022-09-20T01:04:50.651Z,9.92
2022-09-20T01:07:23.415Z,9.95
2022-09-20T01:09:52.398Z,10.00
2022-09-20T01:12:24.561Z,10.00
2022-09-20T01:14:54.608Z,10.00
2022-09-20T01:17:26.023Z,10.07
2022-09-20T01:20:08.788Z,10.07
2022-09-20T01:23:00.023Z,9.98
2022-09-20T01:25:49.887Z,9.98
2022-09-20T01:28:19.771Z,10.07
2022-09-20T01:30:53.355Z,10.13
2022-09-20T01:33:29.656Z,10.16
2022-09-20T01:36:02.252Z,10.26
2022-09-20T01:38:39.705Z,10.31
2022-09-20T01:41:13.237Z,10.43
2022-09-20T01:43:49.601Z,10.45
2022-09-20T01:46:30.070Z,10.52
2022-09-20T01:49:10.724Z,10.60
2022-09-20T01:52:02.964Z,10.62
2022-09-20T01:55:13.677Z,10.65
2022-09-20T01:58:27.097Z,10.63
2022-09-20T02:01:34.993Z,10.64
2022-09-20T02:04:32.953Z,10.66
2022-09-20T02:07:15.991Z,10.60
2022-09-20T02:10:12.713Z,10.62
2022-09-20T02:12:54.261Z,10.65
2022-09-20T02:15:42.445Z,10.59
2022-09-20T02:18:27.319Z,10.64
2022-09-20T02:21:02.222Z,10.67
2022-09-20T02:23:41.773Z,10.60
2022-09-20T02:26:44.271Z,10.65
2022-09-20T02:29:30.973Z,10.60
2022-09-20T02:32:16.246Z,10.67
2022-09-20T02:35:26.783Z,10.58
2022-09-20T02:38:19.774Z,10.60
2022-09-20T02:41:15.202Z,10.62
2022-09-20T02:43:53.008Z,10.60
2022-09-20T02:46:28.788Z,10.53
2022-09-20T02:49:04.245Z,10.49
2022-09-20T02:51:40.891Z,10.53
2022-09-20T02:54:23.335Z,10.39
2022-09-20T02:56:59.739Z,10.39
2022-09-20T02:59:40.292Z,10.30
2022-09-20T03:02:19.524Z,10.30
2022-09-20T03:04:59.733Z,10.27
2022-09-20T03:07:36.312Z,10.27
2022-09-20T03:10:15.343Z,10.20
2022-09-20T03:12:56.220Z,10.19
2022-09-20T03:15:32.773Z,10.14
2022-09-20T03:18:09.420Z,10.12
2022-09-20T03:20:49.163Z,10.03
2022-09-20T03:23:36.828Z,10.01
2022-09-20T03:26:15.088Z,10.00
2022-09-20T03:29:00.629Z,9.97
2022-09-20T03:31:50.808Z,9.93
2022-09-20T03:34:36.268Z,9.86
2022-09-20T03:37:24.337Z,9.78
2022-09-20T03:40:19.661Z,9.74
2022-09-20T03:42:50.386Z,9.68
2022-09-20T03:45:48.096Z,9.59
2022-09-20T03:48:48.200Z,9.53
2022-09-20T03:51:33.607Z,9.50
2022-09-20T03:54:33.108Z,9.45
2022-09-20T03:57:36.345Z,9.40
2022-09-20T04:00:23.616Z,9.31
2022-09-20T04:03:12.098Z,9.25
2022-09-20T04:05:52.675Z,9.27
2022-09-20T04:08:40.361Z,9.30
2022-09-20T04:11:19.192Z,9.36
2022-09-20T04:13:55.974Z,9.24
2022-09-20T04:16:33.442Z,9.18
2022-09-20T04:19:11.612Z,9.19
2022-09-20T04:21:49.608Z,9.10
2022-09-20T04:24:24.012Z,9.07
2022-09-20T04:26:58.548Z,9.06
2022-09-20T04:29:39.242Z,9.04
2022-09-20T04:32:16.763Z,9.05
2022-09-20T04:35:07.145Z,9.02
2022-09-20T04:37:38.542Z,8.96
2022-09-20T04:40:19.580Z,9.00
2022-09-20T04:43:29.139Z,9.02
2022-09-20T04:46:36.613Z,8.97
2022-09-20T04:49:44.091Z,8.98
2022-09-20T04:52:47.878Z,8.94
2022-09-20T04:55:50.192Z,9.05
2022-09-20T04:58:39.648Z,9.03
2022-09-20T05:01:40.417Z,9.07
2022-09-20T05:04:59.081Z,9.10
2022-09-20T05:08:10.820Z,9.17
2022-09-20T05:11:14.962Z,9.27
2022-09-20T05:14:02.487Z,9.27
2022-09-20T05:16:44.213Z,9.26
2022-09-20T05:19:30.852Z,9.23
2022-09-20T05:22:19.210Z,9.25
2022-09-20T05:25:11.189Z,9.29
2022-09-20T05:27:46.629Z,9.16
2022-09-20T05:30:24.875Z,9.09
2022-09-20T05:33:05.766Z,9.10
2022-09-20T05:35:43.332Z,9.05
2022-09-20T05:38:18.740Z,9.01
2022-09-20T05:41:04.416Z,8.98
2022-09-20T05:43:35.216Z,8.96
2022-09-20T05:46:17.756Z,9.05
2022-09-20T05:48:56.320Z,8.98
2022-09-20T05:51:55.860Z,9.04
2022-09-20T05:54:49.846Z,8.95
2022-09-20T05:57:30.018Z,9.01
2022-09-20T06:00:04.568Z,8.97
2022-09-20T06:02:49.067Z,9.02
2022-09-20T06:05:22.035Z,9.05
2022-09-20T06:08:06.155Z,9.10
2022-09-20T06:10:52.943Z,9.16
2022-09-20T06:13:59.755Z,9.20
2022-09-20T06:16:38.141Z,9.23
2022-09-20T06:19:16.887Z,9.34
2022-09-20T06:21:52.634Z,9.46
2022-09-20T06:24:33.181Z,9.49
2022-09-20T06:27:05.799Z,9.52
2022-09-20T06:29:37.517Z,9.53
2022-09-20T06:32:06.109Z,9.63
2022-09-20T06:34:34.425Z,9.60
2022-09-20T06:37:29.813Z,9.69
2022-09-20T06:40:29.020Z,9.75
2022-09-20T06:43:00.374Z,9.89
2022-09-20T06:45:29.108Z,10.03
2022-09-20T06:47:57.629Z,10.14
2022-09-20T06:50:25.960Z,10.22
2022-09-20T06:52:55.148Z,10.27
2022-09-20T06:55:30.377Z,10.43
2022-09-20T06:57:58.859Z,10.56
2022-09-20T07:00:27.199Z,10.73
2022-09-20T07:02:56.768Z,10.72
2022-09-20T07:05:26.639Z,10.85
2022-09-20T07:07:58.711Z,10.99
2022-09-20T07:10:29.186Z,11.13
2022-09-20T07:13:00.509Z,11.19
2022-09-20T07:15:29.276Z,11.08
2022-09-20T07:18:00.219Z,11.22
2022-09-20T07:20:29.300Z,11.31
2022-09-20T07:22:57.755Z,11.41
2022-09-20T07:25:26.060Z,11.39
2022-09-20T07:27:55.729Z,11.43
2022-09-20T07:30:24.888Z,11.48
2022-09-20T07:32:53.675Z,11.54
2022-09-20T07:35:22.427Z,11.56
2022-09-20T07:37:57.666Z,11.57
2022-09-20T07:40:27.494Z,11.57
2022-09-20T07:42:59.005Z,11.59
2022-09-20T07:45:27.567Z,11.64
2022-09-20T07:47:55.875Z,11.61
2022-09-20T07:50:24.630Z,11.63
2022-09-20T07:52:52.923Z,11.69
2022-09-20T07:55:21.297Z,11.72
2022-09-20T07:57:49.661Z,11.72
2022-09-20T08:00:19.587Z,11.78
2022-09-20T08:02:47.895Z,11.79
2022-09-20T08:05:16.354Z,11.76
2022-09-20T08:07:44.781Z,11.64
2022-09-20T08:10:13.063Z,11.60
2022-09-20T08:15:31.837Z,11.97
2022-09-20T08:18:00.203Z,12.26
2022-09-20T08:20:30.913Z,12.40
2022-09-20T08:23:22.181Z,12.76
2022-09-20T08:25:49.925Z,13.35
2022-09-20T08:28:18.315Z,13.77
2022-09-20T08:30:48.163Z,14.25
2022-09-20T08:33:16.543Z,14.34
2022-09-20T08:35:44.993Z,14.33
2022-09-20T08:41:05.864Z,14.52
2022-09-20T08:43:45.480Z,14.32
2022-09-20T08:46:23.586Z,14.37
2022-09-20T08:48:55.700Z,14.30
2022-09-20T08:51:25.387Z,14.18
2022-09-20T08:53:55.513Z,14.07
2022-09-20T08:56:24.352Z,13.89
2022-09-20T08:58:53.380Z,13.80
2022-09-20T09:01:24.986Z,13.73
2022-09-20T09:03:59.032Z,13.80
2022-09-20T09:06:27.303Z,13.86
2022-09-20T09:09:00.410Z,13.95
2022-09-20T09:11:28.725Z,14.09
2022-09-20T09:14:01.497Z,14.20
2022-09-20T09:16:36.367Z,14.32
2022-09-20T09:19:33.775Z,14.33
2022-09-20T09:22:04.474Z,14.40
2022-09-20T09:24:33.580Z,14.45
2022-09-20T09:27:10.561Z,14.47
2022-09-20T09:29:51.781Z,14.54
2022-09-20T09:32:28.556Z,14.63
2022-09-20T09:34:57.358Z,14.77
2022-09-20T09:37:29.090Z,14.60
2022-09-20T09:40:16.489Z,14.58
2022-09-20T09:42:53.930Z,14.49
2022-09-20T09:45:29.182Z,14.42
2022-09-20T09:48:01.615Z,14.36
2022-09-20T09:50:33.681Z,14.26
2022-09-20T09:53:07.108Z,14.15
2022-09-20T09:55:58.093Z,14.09
2022-09-20T09:58:39.203Z,14.06
2022-09-20T10:01:30.030Z,14.07
2022-09-20T10:04:10.861Z,14.10
2022-09-20T10:06:50.524Z,14.08
2022-09-20T10:09:37.351Z,14.22
2022-09-20T10:12:19.772Z,14.40
2022-09-20T10:15:04.186Z,14.72
2022-09-20T10:17:51.899Z,14.86
2022-09-20T10:20:53.237Z,15.18
2022-09-20T10:24:03.330Z,15.32
2022-09-20T10:26:40.381Z,15.26
2022-09-20T10:29:17.054Z,15.58
2022-09-20T10:31:57.372Z,15.81
2022-09-20T10:35:09.361Z,16.10
2022-09-20T10:37:51.029Z,16.14
2022-09-20T10:40:50.621Z,16.04
2022-09-20T10:43:31.093Z,16.05
2022-09-20T10:46:31.390Z,16.40
2022-09-20T10:49:05.797Z,17.09
2022-09-20T10:51:45.672Z,17.76
2022-09-20T10:54:30.233Z,17.46
2022-09-20T10:57:12.496Z,17.11
2022-09-20T10:59:51.363Z,17.30
2022-09-20T11:02:37.265Z,18.26
2022-09-20T11:05:27.277Z,18.05
2022-09-20T11:08:03.320Z,17.92
2022-09-20T11:10:39.211Z,17.67
2022-09-20T11:13:14.715Z,17.35
2022-09-20T11:15:47.088Z,16.92
2022-09-20T11:18:23.445Z,16.59
2022-09-20T11:20:59.367Z,16.03
2022-09-20T11:23:34.948Z,15.90
2022-09-20T11:26:11.623Z,15.63
2022-09-20T11:28:43.478Z,15.61
2022-09-20T11:31:19.264Z,15.43
2022-09-20T11:33:53.316Z,15.21
2022-09-20T11:36:28.438Z,15.19
2022-09-20T11:39:03.246Z,14.99
2022-09-20T11:41:33.679Z,14.93
2022-09-20T11:44:08.614Z,14.79
2022-09-20T11:46:43.601Z,14.77
2022-09-20T11:49:17.604Z,14.73
2022-09-20T11:52:12.367Z,14.68
2022-09-20T11:55:16.342Z,14.60
2022-09-20T11:57:46.818Z,14.54
2022-09-20T12:00:17.772Z,14.56
2022-09-20T12:02:49.472Z,14.59
2022-09-20T12:05:32.239Z,14.68
2022-09-20T12:08:02.571Z,14.83
2022-09-20T12:10:35.315Z,15.09
2022-09-20T12:13:06.964Z,15.32
2022-09-20T12:15:39.069Z,15.49
2022-09-20T12:18:35.572Z,15.56
2022-09-20T12:21:17.372Z,15.86
2022-09-20T12:24:02.706Z,16.08
2022-09-20T12:26:44.662Z,16.20
2022-09-20T12:29:55.288Z,15.99
2022-09-20T12:32:52.034Z,16.15
2022-09-20T12:35:59.835Z,16.24
2022-09-20T12:38:37.639Z,16.22
2022-09-20T12:41:14.146Z,16.18
2022-09-20T12:43:54.494Z,16.20
2022-09-20T12:46:28.003Z,16.21
2022-09-20T12:49:52.575Z,16.26
2022-09-20T12:52:49.899Z,16.07
2022-09-20T12:55:34.515Z,16.15
2022-09-20T12:58:06.163Z,16.40
2022-09-20T13:00:39.137Z,16.54
2022-09-20T13:03:27.174Z,16.46
2022-09-20T13:06:23.489Z,16.76
2022-09-20T13:08:59.284Z,16.87
2022-09-20T13:11:31.770Z,16.87
2022-09-20T13:14:04.830Z,17.02
2022-09-20T13:16:40.744Z,17.21
2022-09-20T13:19:16.442Z,17.18
2022-09-20T13:21:57.693Z,17.34
2022-09-20T13:24:29.277Z,17.10
2022-09-20T13:27:03.512Z,17.09
2022-09-20T13:29:34.386Z,17.22
2022-09-20T13:32:17.369Z,17.22
2022-09-20T13:34:46.691Z,17.16
2022-09-20T13:37:23.488Z,17.15
2022-09-20T13:39:56.339Z,17.18
2022-09-20T13:42:24.828Z,17.01
2022-09-20T13:44:53.589Z,17.16
2022-09-20T13:47:24.496Z,16.99
2022-09-20T13:49:53.246Z,16.77
2022-09-20T13:52:27.848Z,16.46
2022-09-20T13:54:57.968Z,16.24
2022-09-20T13:57:29.655Z,15.78
2022-09-20T13:59:58.408Z,15.58
2022-09-20T14:02:30.692Z,15.39
2022-09-20T14:05:01.620Z,15.21
2022-09-20T14:07:31.146Z,15.08
2022-09-20T14:10:01.251Z,14.93
2022-09-20T14:12:30.086Z,14.94
2022-09-20T14:14:59.485Z,14.81
2022-09-20T14:17:32.676Z,14.60
2022-09-20T14:20:01.267Z,14.58
2022-09-20T14:22:30.262Z,14.56
2022-09-20T14:25:02.736Z,14.68
2022-09-20T14:27:32.736Z,14.79
2022-09-20T14:30:01.301Z,14.84
2022-09-20T14:32:38.481Z,14.97
2022-09-20T14:35:14.573Z,15.11
2022-09-20T14:37:46.328Z,15.36
2022-09-20T14:40:23.793Z,15.52
2022-09-20T14:42:55.839Z,15.68
2022-09-20T14:45:28.496Z,16.32
2022-09-20T14:48:00.833Z,17.53
2022-09-20T14:50:31.252Z,17.97
2022-09-20T14:53:21.551Z,17.83
2022-09-20T14:55:59.626Z,17.34
2022-09-20T14:58:28.022Z,17.26
2022-09-20T15:01:01.394Z,17.61
2022-09-20T15:03:32.951Z,18.30
2022-09-20T15:06:01.582Z,18.78
2022-09-20T15:08:30.164Z,20.33
2022-09-20T15:11:00.429Z,20.14
2022-09-20T15:13:28.806Z,20.11
2022-09-20T15:15:57.858Z,19.65
2022-09-20T15:18:29.155Z,19.27
2022-09-20T15:20:58.222Z,18.98
2022-09-20T15:23:26.531Z,19.41
2022-09-20T15:25:56.414Z,19.54
2022-09-20T15:28:26.895Z,20.70
2022-09-20T15:30:55.265Z,21.02
2022-09-20T15:33:23.553Z,19.47
2022-09-20T15:35:51.930Z,18.59
2022-09-20T15:38:20.626Z,18.56
2022-09-20T15:40:50.865Z,18.42
2022-09-20T15:43:21.998Z,17.75
2022-09-20T15:45:54.891Z,17.23
2022-09-20T15:48:25.564Z,16.86
2022-09-20T15:51:12.638Z,16.21
2022-09-20T15:53:44.967Z,16.02
2022-09-20T15:56:17.757Z,15.95
2022-09-20T15:58:48.638Z,15.72
2022-09-20T16:01:19.715Z,15.58
2022-09-20T16:03:49.016Z,15.57
2022-09-20T16:06:17.643Z,15.43
2022-09-20T16:08:46.279Z,15.32
2022-09-20T16:11:20.428Z,15.15
2022-09-20T16:13:54.472Z,15.16
2022-09-20T16:16:24.553Z,15.21
2022-09-20T16:19:12.735Z,15.30
2022-09-20T16:21:43.292Z,15.16
2022-09-20T16:24:13.359Z,15.17
2022-09-20T16:26:41.864Z,15.30
2022-09-20T16:29:11.752Z,15.21
2022-09-20T16:31:42.980Z,15.13
2022-09-20T16:34:16.963Z,15.01
2022-09-20T16:36:45.527Z,15.08
2022-09-20T16:39:15.299Z,15.01
2022-09-20T16:41:44.533Z,14.82
2022-09-20T16:44:13.165Z,14.73
2022-09-20T16:46:44.592Z,14.62
2022-09-20T16:49:14.241Z,14.55
2022-09-20T16:51:43.833Z,14.37
2022-09-20T16:54:13.586Z,14.28
2022-09-20T16:56:44.635Z,14.20
2022-09-20T16:59:14.040Z,14.18
2022-09-20T17:01:47.107Z,14.08
2022-09-20T17:04:17.953Z,14.06
2022-09-20T17:06:47.175Z,13.93
2022-09-20T17:09:16.637Z,13.80
2022-09-20T17:11:47.141Z,13.70
2022-09-20T17:14:17.290Z,13.58
2022-09-20T17:16:48.131Z,13.53
2022-09-20T17:19:18.525Z,13.44
2022-09-20T17:21:50.743Z,13.30
2022-09-20T17:24:20.077Z,13.29
2022-09-20T17:26:50.470Z,13.23
2022-09-20T17:29:20.438Z,13.17
2022-09-20T17:31:55.614Z,13.06
2022-09-20T17:34:26.389Z,13.03
2022-09-20T17:36:55.569Z,13.00
2022-09-20T17:39:24.449Z,12.92
2022-09-20T17:41:53.013Z,12.89
2022-09-20T17:44:21.337Z,12.88
2022-09-20T17:46:53.979Z,12.82
2022-09-20T17:49:23.946Z,12.77
2022-09-20T17:51:53.705Z,12.67
2022-09-20T17:54:22.615Z,12.64
2022-09-20T17:56:53.315Z,12.59
2022-09-20T17:59:22.191Z,12.51
2022-09-20T18:01:54.361Z,12.43
2022-09-20T18:04:24.638Z,12.31
2022-09-20T18:06:54.194Z,12.27
2022-09-20T18:09:24.356Z,12.21
2022-09-20T18:11:54.181Z,12.22
2022-09-20T18:14:24.267Z,12.19
2022-09-20T18:16:55.475Z,12.12
2022-09-20T18:19:24.675Z,12.06
2022-09-20T18:21:53.113Z,12.00
2022-09-20T18:24:21.392Z,11.96
2022-09-20T18:26:49.747Z,11.92
2022-09-20T18:29:19.107Z,11.84
2022-09-20T18:31:52.245Z,11.78
2022-09-20T18:34:24.381Z,11.81
2022-09-20T18:36:54.197Z,11.77
2022-09-20T18:39:23.236Z,11.76
2022-09-20T18:41:53.309Z,11.69
2022-09-20T18:44:23.359Z,11.62
2022-09-20T18:46:53.492Z,11.59
2022-09-20T18:49:23.633Z,11.56
2022-09-20T18:51:51.985Z,11.57
2022-09-20T18:54:20.320Z,11.53
2022-09-20T18:56:50.435Z,11.57
2022-09-20T18:59:21.467Z,11.53
2022-09-20T19:02:20.055Z,11.55
2022-09-20T19:05:18.914Z,11.42
2022-09-20T19:07:55.244Z,11.32
2022-09-20T19:10:32.891Z,11.27
2022-09-20T19:13:19.174Z,11.22
2022-09-20T19:16:11.567Z,11.17
2022-09-20T19:19:09.523Z,11.10
2022-09-20T19:21:46.042Z,10.98
2022-09-20T19:24:26.550Z,10.94
2022-09-20T19:26:55.234Z,10.89
2022-09-20T19:29:26.852Z,10.88
2022-09-20T19:31:57.202Z,10.84
2022-09-20T19:34:27.606Z,10.86
2022-09-20T19:37:08.222Z,10.82
2022-09-20T19:39:54.927Z,10.77
2022-09-20T19:42:36.243Z,10.71
2022-09-20T19:45:15.479Z,10.69
2022-09-20T19:47:52.043Z,10.67
2022-09-20T19:50:29.533Z,10.67
2022-09-20T19:53:01.931Z,10.78
2022-09-20T19:55:31.323Z,10.67
2022-09-20T19:58:00.194Z,10.55
2022-09-20T20:00:30.114Z,10.52
2022-09-20T20:02:58.975Z,10.45
2022-09-20T20:05:29.242Z,10.39
2022-09-20T20:08:19.546Z,10.35
2022-09-20T20:10:58.563Z,10.29
2022-09-20T20:13:52.639Z,10.26
2022-09-20T20:16:29.431Z,10.27
2022-09-20T20:19:16.423Z,10.21
2022-09-20T20:21:52.766Z,10.22
2022-09-20T20:24:30.137Z,10.20
2022-09-20T20:26:58.518Z,10.18
2022-09-20T20:29:27.423Z,10.12
2022-09-20T20:31:55.682Z,10.09
2022-09-20T20:34:24.507Z,10.15
2022-09-20T20:36:54.362Z,10.22
2022-09-20T20:39:24.012Z,10.14
2022-09-20T20:41:52.656Z,9.98
2022-09-20T20:44:22.130Z,10.04
2022-09-20T20:46:50.928Z,9.98
2022-09-20T20:49:19.252Z,9.90
2022-09-20T20:51:48.193Z,9.85
2022-09-20T20:54:16.558Z,9.81
2022-09-20T20:56:46.157Z,9.74
2022-09-20T20:59:16.083Z,9.71
2022-09-20T21:01:45.976Z,9.70
2022-09-20T21:04:15.295Z,9.67
2022-09-20T21:06:44.090Z,9.64
2022-09-20T21:09:13.507Z,9.66
2022-09-20T21:11:43.261Z,9.66
2022-09-20T21:14:13.614Z,9.60
2022-09-20T21:16:43.614Z,9.63
2022-09-20T21:19:14.963Z,9.78
2022-09-20T21:21:45.342Z,9.70
2022-09-20T21:24:17.264Z,9.59
2022-09-20T21:26:46.945Z,9.57
2022-09-20T21:29:17.440Z,9.50
2022-09-20T21:31:47.276Z,9.49
2022-09-20T21:34:17.044Z,9.49
2022-09-20T21:36:45.647Z,9.49
2022-09-20T21:39:14.393Z,9.45
2022-09-20T21:41:43.106Z,9.46
2022-09-20T21:44:12.275Z,9.42
2022-09-20T21:46:43.147Z,9.40
2022-09-20T21:49:13.191Z,9.42
2022-09-20T21:51:43.941Z,9.39
2022-09-20T21:54:12.496Z,9.40
2022-09-20T21:56:41.445Z,9.39
2022-09-20T21:59:10.109Z,9.42
2022-09-20T22:01:40.293Z,9.51
2022-09-20T22:04:11.513Z,9.59
2022-09-20T22:06:41.508Z,9.49
2022-09-20T22:09:11.509Z,9.46
2022-09-20T22:11:41.735Z,9.40
2022-09-20T22:14:11.130Z,9.39
2022-09-20T22:16:41.224Z,9.32
2022-09-20T22:19:13.377Z,9.20
2022-09-20T22:21:44.231Z,9.12
2022-09-20T22:24:14.298Z,9.09
2022-09-20T22:26:44.631Z,9.08
2022-09-20T22:29:13.544Z,9.01
2022-09-20T22:31:45.697Z,9.18
2022-09-20T22:34:18.158Z,9.11
2022-09-20T22:36:47.895Z,9.10
2022-09-20T22:39:17.225Z,9.04
2022-09-20T22:41:48.080Z,9.03
2022-09-20T22:44:16.887Z,9.05
2022-09-20T22:46:45.425Z,8.95
2022-09-20T22:49:15.492Z,8.91
2022-09-20T22:51:44.374Z,8.87
2022-09-20T22:54:13.666Z,8.83
2022-09-20T22:56:42.681Z,8.83
2022-09-20T22:59:12.877Z,8.83
2022-09-20T23:01:43.521Z,8.77
2022-09-20T23:04:14.751Z,8.74
2022-09-20T23:06:47.920Z,8.73
2022-09-20T23:09:18.555Z,8.76
2022-09-20T23:11:47.726Z,8.80
2022-09-20T23:14:18.830Z,8.95
2022-09-20T23:16:48.459Z,8.78
2022-09-20T23:19:17.496Z,8.76
2022-09-20T23:21:47.619Z,8.74
2022-09-20T23:24:17.255Z,8.68
2022-09-20T23:26:46.364Z,8.66
2022-09-20T23:29:16.406Z,8.68
2022-09-20T23:31:47.395Z,8.65
2022-09-20T23:34:17.461Z,8.60
2022-09-20T23:36:47.691Z,8.56
2022-09-20T23:39:16.812Z,8.50
2022-09-20T23:41:50.714Z,8.51
2022-09-20T23:44:20.392Z,8.52
2022-09-20T23:46:48.965Z,8.50
2022-09-20T23:49:17.633Z,8.47
2022-09-20T23:51:47.688Z,8.46
2022-09-20T23:54:16.460Z,8.57
2022-09-20T23:56:45.041Z,8.65
2022-09-20T23:59:13.665Z,8.56
